Time;durP1;ratioP1;P1;durP2;ratioP2;P2;SDS_P1;SDS_P2;PMS_P1;PMS_P2;Temp;Humidity;BMP_temperature;BMP_pressure;BME280_temperature;BME280_humidity;BME280_pressure;Samples;Min_cycle;Max_cycle;Signal;HPM_P1;HPM_P2
2021/04/09 00:02:14;;;;;;;4.67;2.43;;;6.60;64.80;;;;;;5038520;28;20237;-68
2021/04/09 00:04:41;;;;;;;4.97;3.07;;;6.70;64.70;;;;;;5047772;28;20210;-68
2021/04/09 00:07:08;;;;;;;6.77;2.93;;;6.70;64.60;;;;;;5051740;28;20556;-68
2021/04/09 00:09:35;;;;;;;5.63;2.70;;;6.60;64.40;;;;;;5033936;28;20264;-68
2021/04/09 00:12:03;;;;;;;9.40;3.47;;;6.60;64.30;;;;;;5033568;28;20215;-68
2021/04/09 00:14:30;;;;;;;5.80;2.60;;;6.70;64.10;;;;;;5047731;28;20301;-68
2021/04/09 00:16:57;;;;;;;6.07;2.87;;;6.70;63.90;;;;;;5051453;28;20211;-68
2021/04/09 00:19:26;;;;;;;4.37;2.80;;;6.70;64.00;;;;;;5051970;28;20217;-68
2021/04/09 00:21:54;;;;;;;4.43;3.03;;;6.60;63.90;;;;;;5050961;28;20534;-68
2021/04/09 00:24:23;;;;;;;5.23;3.03;;;6.50;64.10;;;;;;5050512;28;20210;-68
2021/04/09 00:26:51;;;;;;;5.87;3.67;;;6.40;64.40;;;;;;5021420;28;20274;-68
2021/04/09 00:29:18;;;;;;;5.13;2.90;;;6.30;64.70;;;;;;5055235;28;20713;-68
2021/04/09 00:31:45;;;;;;;14.63;4.00;;;6.20;65.10;;;;;;5056616;28;20688;-68
2021/04/09 00:34:13;;;;;;;4.30;2.53;;;6.10;65.30;;;;;;5048788;28;20550;-68
2021/04/09 00:36:40;;;;;;;4.87;2.97;;;5.90;65.30;;;;;;5051387;28;20242;-68
2021/04/09 00:39:08;;;;;;;5.40;3.20;;;5.70;66.00;;;;;;5053507;28;20231;-68
2021/04/09 00:41:40;;;;;;;3.00;2.60;;;5.60;66.60;;;;;;5021510;28;20218;-68
2021/04/09 00:44:11;;;;;;;5.53;3.07;;;5.60;66.90;;;;;;5040452;28;20631;-68
2021/04/09 00:46:39;;;;;;;5.47;3.30;;;5.60;66.90;;;;;;5040512;28;20261;-68
2021/04/09 00:49:07;;;;;;;6.10;2.97;;;5.60;66.60;;;;;;5042436;28;20220;-68
2021/04/09 00:51:36;;;;;;;5.03;2.87;;;5.60;66.30;;;;;;5053826;28;20210;-68
2021/04/09 00:54:05;;;;;;;4.93;2.87;;;5.60;66.50;;;;;;5050168;28;20231;-68
2021/04/09 00:56:34;;;;;;;5.67;2.97;;;5.60;66.70;;;;;;5023153;28;20292;-68
2021/04/09 00:59:02;;;;;;;5.23;2.97;;;5.70;67.00;;;;;;5039464;28;20297;-68
2021/04/09 01:01:29;;;;;;;3.23;2.53;;;5.60;67.10;;;;;;5051194;28;20218;-68
2021/04/09 01:03:57;;;;;;;5.07;2.80;;;5.60;67.00;;;;;;5045356;28;20258;-68
2021/04/09 01:06:24;;;;;;;4.43;2.60;;;5.60;67.20;;;;;;5053581;28;20215;-68
2021/04/09 01:08:52;;;;;;;7.57;2.97;;;5.60;67.60;;;;;;5047478;28;20250;-68
2021/04/09 01:11:19;;;;;;;6.87;3.13;;;5.70;67.70;;;;;;5043320;28;20294;-68
2021/04/09 01:13:46;;;;;;;2.97;2.57;;;5.60;67.80;;;;;;5051244;28;20206;-68
2021/04/09 01:16:42;;;;;;;3.87;2.70;;;5.60;67.80;;;;;;5051993;28;20211;-68
2021/04/09 01:19:48;;;;;;;8.43;2.93;;;5.60;68.00;;;;;;5047282;28;20721;-68
2021/04/09 01:22:16;;;;;;;6.03;3.00;;;5.60;67.90;;;;;;5033909;28;20234;-68
2021/04/09 01:25:23;;;;;;;5.20;2.40;;;5.60;67.80;;;;;;5034189;28;20594;-67
2021/04/09 01:28:02;;;;;;;3.87;3.00;;;5.60;68.10;;;;;;5032363;28;20588;-67
2021/04/09 01:30:53;;;;;;;3.90;3.03;;;5.60;68.10;;;;;;5051651;28;20852;-67
2021/04/09 01:33:35;;;;;;;6.37;3.37;;;5.60;68.30;;;;;;5046875;28;20230;-67
2021/04/09 01:36:12;;;;;;;5.27;3.00;;;5.60;68.50;;;;;;5045052;28;20242;-67
2021/04/09 01:38:45;;;;;;;5.70;2.43;;;5.60;68.80;;;;;;5051699;28;20206;-68
2021/04/09 01:41:13;;;;;;;4.87;3.33;;;5.50;69.00;;;;;;5045475;28;20209;-68
2021/04/09 01:43:43;;;;;;;6.90;3.40;;;5.60;69.20;;;;;;5047350;28;20241;-68
2021/04/09 01:46:13;;;;;;;6.20;3.30;;;5.60;69.20;;;;;;5033345;28;20269;-68
2021/04/09 01:48:44;;;;;;;4.67;3.60;;;5.60;69.80;;;;;;5049215;28;20232;-68
2021/04/09 01:51:14;;;;;;;5.80;3.00;;;5.60;69.20;;;;;;5037655;28;20273;-68
2021/04/09 01:53:46;;;;;;;4.63;2.97;;;5.70;69.20;;;;;;5048629;28;20224;-68
2021/04/09 01:56:16;;;;;;;7.90;2.97;;;5.70;69.20;;;;;;5038249;28;20813;-68
2021/04/09 01:58:44;;;;;;;5.57;3.30;;;5.70;69.10;;;;;;5060954;28;20225;-67
2021/04/09 02:01:13;;;;;;;5.37;3.50;;;5.70;69.00;;;;;;5053677;28;20275;-68
2021/04/09 02:03:46;;;;;;;7.00;3.40;;;5.80;69.20;;;;;;5050889;28;20237;-68
2021/04/09 02:06:14;;;;;;;6.57;3.40;;;5.80;69.20;;;;;;5026625;28;20215;-68
2021/04/09 02:08:42;;;;;;;6.37;3.33;;;5.80;69.20;;;;;;5033220;28;20218;-68
2021/04/09 02:11:10;;;;;;;9.60;3.60;;;5.70;69.00;;;;;;5037544;28;20272;-68
2021/04/09 02:13:38;;;;;;;6.10;2.97;;;5.80;69.00;;;;;;5030893;28;20296;-68
2021/04/09 02:16:06;;;;;;;6.70;3.57;;;5.80;69.00;;;;;;5054614;28;20245;-68
2021/04/09 02:18:35;;;;;;;7.17;2.80;;;5.80;69.00;;;;;;5061716;28;20216;-68
2021/04/09 02:21:03;;;;;;;8.37;2.77;;;5.70;68.90;;;;;;5044752;28;20211;-68
2021/04/09 02:23:31;;;;;;;9.13;3.60;;;5.70;68.80;;;;;;5039259;28;20234;-68
2021/04/09 02:25:59;;;;;;;5.20;2.90;;;5.60;68.70;;;;;;5036843;28;20210;-68
2021/04/09 02:28:27;;;;;;;5.70;2.83;;;5.60;68.90;;;;;;5054674;28;20222;-68
2021/04/09 02:31:03;;;;;;;5.40;3.47;;;5.50;68.80;;;;;;5054809;28;20904;-68
2021/04/09 02:33:31;;;;;;;3.57;3.10;;;5.50;68.80;;;;;;5054464;28;20217;-68
2021/04/09 02:35:59;;;;;;;5.03;3.17;;;5.50;68.90;;;;;;5046555;28;20277;-68
2021/04/09 02:38:29;;;;;;;4.20;3.20;;;5.40;69.10;;;;;;5043639;28;20489;-68
2021/04/09 02:41:00;;;;;;;5.20;2.93;;;5.40;69.30;;;;;;5057051;28;20214;-68
2021/04/09 02:43:29;;;;;;;5.40;3.97;;;5.40;69.50;;;;;;5056847;28;20234;-68
2021/04/09 02:45:56;;;;;;;5.83;3.33;;;5.40;69.60;;;;;;5051694;28;20618;-68
2021/04/09 02:48:28;;;;;;;6.67;3.27;;;5.40;69.70;;;;;;5033906;28;20280;-68
2021/04/09 02:50:58;;;;;;;8.63;3.67;;;5.40;69.70;;;;;;5048805;28;20210;-68
2021/04/09 02:53:30;;;;;;;8.27;4.00;;;5.40;69.80;;;;;;5050759;28;20272;-68
2021/04/09 02:56:02;;;;;;;6.17;3.40;;;5.40;69.90;;;;;;5048519;28;20306;-68
2021/04/09 02:58:31;;;;;;;7.87;4.60;;;5.40;70.00;;;;;;5032218;28;20215;-68
2021/04/09 03:00:59;;;;;;;8.20;4.37;;;5.40;70.00;;;;;;5054141;28;20297;-68
2021/04/09 03:03:26;;;;;;;6.20;3.63;;;5.40;70.00;;;;;;5055717;28;20541;-68
2021/04/09 03:05:54;;;;;;;8.63;3.37;;;5.40;70.20;;;;;;5037169;28;20214;-68
2021/04/09 03:08:22;;;;;;;4.77;3.33;;;5.40;70.80;;;;;;5040892;28;20265;-68
2021/04/09 03:10:49;;;;;;;7.50;3.93;;;5.30;70.00;;;;;;5048971;28;20222;-68
2021/04/09 03:13:16;;;;;;;5.37;3.20;;;5.30;69.90;;;;;;5050725;28;20230;-68
2021/04/09 03:15:50;;;;;;;5.50;3.40;;;5.20;69.70;;;;;;5052124;28;20237;-68
2021/04/09 03:18:19;;;;;;;6.70;3.77;;;5.20;69.60;;;;;;5040308;28;20211;-68
2021/04/09 03:20:45;;;;;;;7.27;3.90;;;5.20;69.70;;;;;;5054650;28;20218;-68
2021/04/09 03:23:12;;;;;;;6.90;3.30;;;5.10;69.80;;;;;;5052520;28;20567;-68
2021/04/09 03:25:39;;;;;;;6.70;3.70;;;4.90;70.00;;;;;;5053590;28;20298;-68
2021/04/09 03:28:07;;;;;;;5.43;3.47;;;4.90;70.50;;;;;;5055122;28;20242;-68
2021/04/09 03:30:34;;;;;;;4.57;3.67;;;4.90;70.60;;;;;;5041886;28;20606;-68
2021/04/09 03:33:01;;;;;;;8.13;3.63;;;4.90;70.60;;;;;;5053073;28;20237;-68
2021/04/09 03:35:28;;;;;;;7.97;3.80;;;4.90;70.70;;;;;;5033229;28;20277;-68
2021/04/09 03:37:54;;;;;;;7.50;3.63;;;4.90;70.70;;;;;;5051017;28;20214;-68
2021/04/09 03:40:23;;;;;;;7.47;3.00;;;4.80;70.70;;;;;;5063615;28;20242;-68
2021/04/09 03:42:50;;;;;;;4.73;3.73;;;4.80;71.00;;;;;;5027078;28;20235;-68
2021/04/09 03:45:18;;;;;;;8.97;3.87;;;4.80;71.30;;;;;;5050181;28;20294;-68
2021/04/09 03:47:44;;;;;;;10.80;4.20;;;4.80;71.60;;;;;;5043585;28;20206;-68
2021/04/09 03:50:12;;;;;;;9.60;4.23;;;4.70;71.70;;;;;;5047505;28;20214;-68
2021/04/09 03:52:39;;;;;;;9.33;4.70;;;4.80;71.90;;;;;;5052772;28;20245;-68
2021/04/09 03:55:13;;;;;;;10.57;5.00;;;4.80;72.00;;;;;;5035899;28;20229;-68
2021/04/09 03:57:40;;;;;;;12.50;5.67;;;4.70;72.20;;;;;;5052225;28;20588;-68
2021/04/09 04:00:08;;;;;;;6.77;4.70;;;4.80;72.30;;;;;;5052749;28;20221;-68
2021/04/09 04:02:34;;;;;;;8.33;4.47;;;4.80;72.30;;;;;;5052332;28;20571;-68
2021/04/09 04:05:02;;;;;;;13.83;5.07;;;4.80;72.40;;;;;;5053116;28;20285;-68
2021/04/09 04:07:34;;;;;;;11.20;4.70;;;4.80;72.40;;;;;;5050041;28;20214;-68
2021/04/09 04:10:02;;;;;;;7.60;4.70;;;4.80;72.50;;;;;;5033163;28;20298;-68
2021/04/09 04:12:29;;;;;;;12.10;4.97;;;4.80;72.60;;;;;;5030349;28;20218;-68
2021/04/09 04:14:56;;;;;;;8.37;4.97;;;4.80;72.70;;;;;;5047501;28;20219;-68
2021/04/09 04:17:24;;;;;;;11.07;5.60;;;4.80;72.60;;;;;;5032943;28;20212;-68
2021/04/09 04:19:51;;;;;;;9.00;4.77;;;4.80;72.60;;;;;;5032141;28;20257;-68
2021/04/09 04:22:19;;;;;;;11.33;5.50;;;4.70;72.90;;;;;;5045590;28;20613;-68
2021/04/09 04:24:47;;;;;;;10.60;5.13;;;4.70;73.10;;;;;;5028546;28;20206;-68
2021/04/09 04:27:13;;;;;;;10.17;5.10;;;4.60;73.30;;;;;;5034426;28;20308;-68
2021/04/09 04:29:40;;;;;;;8.33;4.80;;;4.60;73.70;;;;;;5034977;28;20202;-68
2021/04/09 04:32:08;;;;;;;7.97;5.00;;;4.60;73.70;;;;;;5042132;28;20237;-68
2021/04/09 04:34:34;;;;;;;7.40;4.63;;;4.60;73.70;;;;;;5056163;28;20237;-69
2021/04/09 04:37:02;;;;;;;9.73;5.43;;;4.60;73.80;;;;;;5051975;28;20281;-69
2021/04/09 04:39:29;;;;;;;7.20;4.47;;;4.60;73.80;;;;;;5042587;28;20222;-69
2021/04/09 04:41:56;;;;;;;5.97;4.30;;;4.60;73.80;;;;;;5038109;28;20283;-69
2021/04/09 04:44:23;;;;;;;10.97;5.17;;;4.70;73.80;;;;;;5048899;28;20238;-69
2021/04/09 04:46:50;;;;;;;6.63;4.83;;;4.70;73.50;;;;;;5044610;28;20222;-69
2021/04/09 04:49:20;;;;;;;8.13;5.10;;;4.70;73.30;;;;;;5027635;28;20207;-69
2021/04/09 04:51:47;;;;;;;8.00;4.60;;;4.70;73.30;;;;;;5038207;28;20245;-69
2021/04/09 04:54:15;;;;;;;12.47;5.30;;;4.60;73.20;;;;;;5047399;28;20289;-70
2021/04/09 04:56:47;;;;;;;11.30;4.57;;;4.60;73.20;;;;;;5025012;28;20549;-70
2021/04/09 04:59:13;;;;;;;14.40;4.70;;;4.60;73.00;;;;;;5041585;28;20214;-70
2021/04/09 05:01:40;;;;;;;8.80;4.73;;;4.50;72.80;;;;;;5038696;28;20285;-70
2021/04/09 05:54:08;;;;;;;8.33;4.47;;;8.10;68.40;;;;;;5015773;28;20606;-68
2021/04/09 05:56:34;;;;;;;12.87;5.67;;;8.40;67.60;;;;;;5019121;28;20222;-68
2021/04/09 05:59:01;;;;;;;6.77;4.27;;;8.60;67.60;;;;;;5024133;28;20219;-70
2021/04/09 06:01:30;;;;;;;7.20;4.53;;;8.80;67.10;;;;;;5024756;28;20225;-70
2021/04/09 06:03:57;;;;;;;6.13;3.77;;;9.00;66.80;;;;;;5022069;28;20629;-70
2021/04/09 06:06:24;;;;;;;9.20;3.83;;;9.30;66.30;;;;;;5019758;28;20218;-70
2021/04/09 06:08:50;;;;;;;9.30;4.73;;;9.50;65.70;;;;;;5017143;28;20214;-67
2021/04/09 06:11:17;;;;;;;11.13;4.13;;;9.70;65.10;;;;;;5019827;28;20398;-69
2021/04/09 06:13:44;;;;;;;10.33;4.27;;;9.90;65.20;;;;;;5022752;28;20218;-68
2021/04/09 06:16:10;;;;;;;12.00;4.60;;;10.00;64.80;;;;;;5023034;28;20212;-68
2021/04/09 06:18:37;;;;;;;11.03;4.80;;;10.30;63.80;;;;;;5021025;28;20219;-68
2021/04/09 06:21:04;;;;;;;13.50;5.30;;;10.50;63.00;;;;;;5019594;28;20222;-68
2021/04/09 06:23:31;;;;;;;7.77;4.20;;;10.70;62.70;;;;;;5017042;28;20231;-67
2021/04/09 06:25:58;;;;;;;14.77;4.13;;;10.90;62.20;;;;;;5020010;28;20571;-69
2021/04/09 06:28:24;;;;;;;8.70;4.10;;;11.20;61.60;;;;;;5025592;28;20227;-71
2021/04/09 06:30:51;;;;;;;8.63;4.40;;;11.40;60.60;;;;;;5025065;28;20270;-68
2021/04/09 06:33:18;;;;;;;9.40;4.23;;;11.60;59.80;;;;;;5026265;28;20230;-69
2021/04/09 06:35:45;;;;;;;11.53;4.17;;;11.80;59.10;;;;;;5024659;28;20225;-69
2021/04/09 06:38:11;;;;;;;10.43;4.73;;;12.00;58.60;;;;;;5024490;28;20211;-69
2021/04/09 06:40:40;;;;;;;8.03;3.70;;;12.10;58.50;;;;;;5023103;28;20211;-68
2021/04/09 06:43:08;;;;;;;5.60;4.20;;;12.20;58.10;;;;;;5022071;28;20326;-69
2021/04/09 06:45:34;;;;;;;13.30;4.40;;;12.30;57.50;;;;;;5023390;28;20218;-68
2021/04/09 06:48:01;;;;;;;9.37;3.90;;;12.40;57.00;;;;;;5028420;28;20242;-68
2021/04/09 06:50:28;;;;;;;8.70;3.67;;;12.50;56.50;;;;;;5025402;28;20216;-69
2021/04/09 06:52:56;;;;;;;7.40;4.00;;;12.70;56.30;;;;;;5035079;28;20256;-70
2021/04/09 06:55:24;;;;;;;13.60;4.73;;;12.80;55.70;;;;;;5024778;28;20333;-69
2021/04/09 06:57:55;;;;;;;9.67;4.10;;;12.90;55.10;;;;;;5044907;28;20218;-68
2021/04/09 07:00:26;;;;;;;7.50;4.40;;;13.00;55.10;;;;;;5041002;28;20222;-68
2021/04/09 07:02:52;;;;;;;8.17;4.63;;;13.10;54.90;;;;;;5045924;28;20245;-68
2021/04/09 07:05:19;;;;;;;8.13;4.13;;;13.20;54.70;;;;;;5042327;28;20207;-69
2021/04/09 07:07:46;;;;;;;12.97;4.23;;;13.30;54.30;;;;;;5046805;28;20215;-67
2021/04/09 07:10:13;;;;;;;11.10;4.17;;;13.40;53.60;;;;;;5027231;28;20225;-67
2021/04/09 07:12:40;;;;;;;7.83;4.13;;;13.50;53.70;;;;;;5041654;28;20240;-68
2021/04/09 07:15:15;;;;;;;12.00;3.83;;;13.50;53.60;;;;;;5040129;28;20211;-69
2021/04/09 07:17:49;;;;;;;9.93;3.90;;;13.70;53.40;;;;;;5027274;28;20315;-68
2021/04/09 07:20:17;;;;;;;7.07;3.93;;;13.80;52.90;;;;;;5044367;28;20218;-71
2021/04/09 07:22:55;;;;;;;7.40;4.00;;;13.90;52.70;;;;;;5043361;28;20236;-69
2021/04/09 07:25:27;;;;;;;6.53;4.37;;;14.00;52.80;;;;;;5040013;28;20217;-71
2021/04/09 07:28:24;;;;;;;7.60;4.00;;;14.10;52.60;;;;;;5036542;28;20207;-71
2021/04/09 07:30:56;;;;;;;10.83;4.27;;;14.20;52.50;;;;;;5044788;28;20222;-68
2021/04/09 07:33:25;;;;;;;8.63;4.17;;;14.30;52.50;;;;;;5027381;28;20237;-68
2021/04/09 07:35:57;;;;;;;9.20;4.17;;;14.50;51.80;;;;;;5040758;28;20225;-69
2021/04/09 07:38:33;;;;;;;11.07;4.23;;;14.60;51.40;;;;;;5022943;28;20627;-69
2021/04/09 07:41:02;;;;;;;10.13;4.07;;;14.70;50.90;;;;;;5025229;28;20221;-71
2021/04/09 07:43:30;;;;;;;6.80;3.67;;;14.70;50.80;;;;;;5042370;28;20247;-70
2021/04/09 07:45:59;;;;;;;7.57;4.60;;;14.80;50.80;;;;;;5041637;28;20631;-69
2021/04/09 07:48:32;;;;;;;9.20;4.07;;;15.00;50.70;;;;;;5045084;28;20297;-69
2021/04/09 07:50:59;;;;;;;10.70;4.23;;;15.20;49.60;;;;;;5031195;28;20647;-68
2021/04/09 07:53:31;;;;;;;7.90;4.00;;;15.30;49.70;;;;;;5045261;28;20682;-68
2021/04/09 07:56:40;;;;;;;10.20;4.27;;;15.50;49.20;;;;;;5030610;28;20697;-69
2021/04/09 07:59:07;;;;;;;7.17;3.50;;;15.70;48.90;;;;;;4948744;28;20218;-69
2021/04/09 08:01:38;;;;;;;17.50;4.33;;;15.90;48.70;;;;;;4950741;28;20226;-68
2021/04/09 08:04:12;;;;;;;10.73;4.40;;;16.10;47.70;;;;;;4930166;29;20246;-68
2021/04/09 08:06:38;;;;;;;12.27;3.83;;;16.10;47.20;;;;;;4948974;28;20607;-68
2021/04/09 08:09:06;;;;;;;9.77;4.57;;;16.20;47.50;;;;;;4950296;28;20214;-70
2021/04/09 08:11:35;;;;;;;7.77;3.97;;;16.30;47.30;;;;;;4933914;29;20317;-71
2021/04/09 08:14:12;;;;;;;6.00;3.90;;;16.50;47.50;;;;;;4948560;29;20305;-70
2021/04/09 08:16:41;;;;;;;6.30;4.20;;;16.70;47.00;;;;;;5019634;28;20232;-69
2021/04/09 08:19:23;;;;;;;5.27;3.87;;;17.00;46.20;;;;;;5041941;28;20214;-70
2021/04/09 08:21:53;;;;;;;11.50;4.60;;;17.00;45.80;;;;;;5021505;28;20230;-71
2021/04/09 08:24:23;;;;;;;6.47;4.13;;;17.20;46.30;;;;;;5039226;28;20615;-70
2021/04/09 08:26:51;;;;;;;6.73;3.73;;;17.40;46.30;;;;;;5040436;28;20611;-69
2021/04/09 08:29:19;;;;;;;6.97;4.10;;;17.50;45.20;;;;;;5025926;28;20217;-69
2021/04/09 08:31:47;;;;;;;11.67;4.03;;;17.50;44.80;;;;;;5026966;28;20248;-69
2021/04/09 08:34:20;;;;;;;10.33;4.60;;;17.50;45.00;;;;;;5045887;28;20371;-71
2021/04/09 08:36:51;;;;;;;12.60;3.97;;;17.50;44.20;;;;;;5041412;28;20594;-70
2021/04/09 08:39:36;;;;;;;7.63;3.50;;;17.40;45.10;;;;;;5026709;28;20206;-70
2021/04/09 08:42:03;;;;;;;5.30;2.90;;;17.50;45.20;;;;;;5023899;28;20219;-70
2021/04/09 08:44:30;;;;;;;8.77;2.83;;;17.70;44.70;;;;;;5026848;28;20230;-69
2021/04/09 08:46:57;;;;;;;5.33;3.03;;;18.00;44.40;;;;;;5038528;28;20218;-69
2021/04/09 08:49:26;;;;;;;13.13;3.10;;;18.30;44.00;;;;;;5017906;28;20211;-69
2021/04/09 08:51:58;;;;;;;6.87;3.30;;;18.50;43.60;;;;;;5043128;28;20299;-69
2021/04/09 08:54:30;;;;;;;4.00;2.70;;;18.60;43.80;;;;;;5044031;28;20211;-69
2021/04/09 08:57:02;;;;;;;15.97;2.93;;;18.80;43.30;;;;;;5039202;28;20246;-69
2021/04/09 08:59:37;;;;;;;8.00;2.90;;;18.90;43.30;;;;;;5043033;28;20278;-69
2021/04/09 09:02:13;;;;;;;6.10;2.70;;;19.10;43.00;;;;;;5045064;28;20236;-69
2021/04/09 09:04:56;;;;;;;6.33;3.10;;;19.20;42.40;;;;;;5045188;28;20704;-71
2021/04/09 09:07:43;;;;;;;4.93;2.70;;;19.20;42.20;;;;;;5042412;28;20298;-71
2021/04/09 09:10:21;;;;;;;8.43;2.83;;;19.20;42.20;;;;;;5038805;28;20603;-67
2021/04/09 09:13:04;;;;;;;3.90;2.20;;;19.20;42.90;;;;;;5041315;28;20290;-69
2021/04/09 09:15:45;;;;;;;7.03;3.17;;;19.40;42.20;;;;;;5040765;28;20670;-71
2021/04/09 09:18:21;;;;;;;5.93;2.50;;;19.60;42.20;;;;;;5036113;28;20215;-69
2021/04/09 09:21:10;;;;;;;8.37;3.03;;;19.80;41.70;;;;;;5038832;28;20276;-69
2021/04/09 09:23:51;;;;;;;5.13;2.30;;;20.00;41.70;;;;;;5039090;28;20231;-69
2021/04/09 09:26:24;;;;;;;8.37;2.20;;;20.10;40.80;;;;;;5021492;28;20223;-70
2021/04/09 09:29:07;;;;;;;6.07;2.07;;;20.10;40.00;;;;;;5041593;28;20244;-71
2021/04/09 09:31:36;;;;;;;6.23;2.10;;;20.10;39.00;;;;;;5025725;28;20207;-70
2021/04/09 09:34:21;;;;;;;4.60;2.07;;;20.00;40.30;;;;;;5035439;28;20228;-69
2021/04/09 09:37:17;;;;;;;5.07;2.17;;;20.20;40.40;;;;;;5032236;28;20218;-68
2021/04/09 09:39:49;;;;;;;5.87;1.90;;;20.50;39.80;;;;;;5018874;28;20241;-70
2021/04/09 09:42:25;;;;;;;5.97;2.20;;;20.70;39.70;;;;;;5047398;28;20308;-71
2021/04/09 09:45:12;;;;;;;5.40;2.40;;;20.90;39.30;;;;;;5043822;28;20318;-71
2021/04/09 09:47:44;;;;;;;4.67;2.27;;;20.80;39.00;;;;;;5039596;28;20217;-68
2021/04/09 09:50:19;;;;;;;6.33;2.47;;;20.80;39.20;;;;;;5042698;28;20210;-68
2021/04/09 09:52:59;;;;;;;4.20;2.03;;;20.90;39.00;;;;;;5010713;28;20231;-68
2021/04/09 09:55:31;;;;;;;7.00;2.47;;;20.90;38.90;;;;;;4998340;28;20265;-69
2021/04/09 09:58:10;;;;;;;7.07;1.97;;;21.10;39.20;;;;;;4995028;28;20307;-71
2021/04/09 10:00:40;;;;;;;6.07;2.37;;;21.30;38.80;;;;;;4995421;28;20243;-70
2021/04/09 10:03:18;;;;;;;3.83;1.93;;;21.40;38.60;;;;;;4998200;28;20227;-70
2021/04/09 10:05:50;;;;;;;5.47;2.03;;;21.50;37.50;;;;;;4984288;28;20299;-69
2021/04/09 10:08:18;;;;;;;4.93;2.50;;;21.30;37.60;;;;;;4997752;28;20226;-69
2021/04/09 10:10:51;;;;;;;8.20;2.37;;;21.10;38.20;;;;;;5000921;28;20220;-68
2021/04/09 10:13:25;;;;;;;3.73;1.90;;;20.90;38.10;;;;;;4995361;28;20307;-67
2021/04/09 10:15:54;;;;;;;5.53;2.40;;;21.00;38.20;;;;;;4998850;28;20217;-71
2021/04/09 10:18:22;;;;;;;6.63;2.03;;;21.10;38.70;;;;;;4987367;28;20563;-71
2021/04/09 10:20:50;;;;;;;10.37;2.50;;;21.30;38.50;;;;;;5003847;28;20641;-70
2021/04/09 10:23:24;;;;;;;3.67;2.10;;;21.40;38.10;;;;;;4998944;28;20330;-68
2021/04/09 10:25:53;;;;;;;6.00;1.80;;;21.40;38.00;;;;;;4984632;28;20209;-68
2021/04/09 10:28:21;;;;;;;6.30;1.90;;;21.60;37.80;;;;;;5002543;28;20300;-68
2021/04/09 10:30:52;;;;;;;3.70;2.17;;;21.80;37.50;;;;;;4984248;28;20208;-68
2021/04/09 10:33:35;;;;;;;2.80;2.00;;;22.10;36.70;;;;;;4982248;28;20307;-68
2021/04/09 10:36:15;;;;;;;5.30;2.47;;;22.20;36.60;;;;;;4993165;28;20230;-71
2021/04/09 10:38:42;;;;;;;4.47;2.43;;;22.30;35.50;;;;;;4996043;28;20310;-69
2021/04/09 10:41:25;;;;;;;6.90;2.10;;;22.20;35.90;;;;;;5001354;28;20220;-68
2021/04/09 10:44:17;;;;;;;3.57;2.20;;;22.20;35.70;;;;;;4995436;28;20232;-68
2021/04/09 10:46:55;;;;;;;3.70;1.80;;;22.30;36.10;;;;;;5000734;28;20216;-70
2021/04/09 10:49:43;;;;;;;3.00;1.53;;;22.20;35.70;;;;;;4998881;28;20209;-71
2021/04/09 10:52:14;;;;;;;2.97;1.60;;;22.20;35.20;;;;;;5006147;28;20322;-71
2021/04/09 10:54:45;;;;;;;4.80;1.50;;;22.30;35.70;;;;;;5012942;28;20640;-67
2021/04/09 10:57:21;;;;;;;3.40;1.57;;;22.20;35.70;;;;;;5017914;28;20302;-67
2021/04/09 10:59:51;;;;;;;1.73;1.57;;;22.30;35.60;;;;;;5016423;28;20266;-68
2021/04/09 11:02:23;;;;;;;6.90;2.07;;;22.40;35.10;;;;;;5017824;28;20243;-68
2021/04/09 11:04:56;;;;;;;4.07;1.57;;;22.60;34.20;;;;;;4985722;28;20233;-71
2021/04/09 11:07:44;;;;;;;3.60;1.60;;;22.60;34.30;;;;;;5019392;28;20231;-68
2021/04/09 11:10:33;;;;;;;2.87;1.50;;;22.50;33.80;;;;;;5009992;28;20727;-71
2021/04/09 11:13:00;;;;;;;3.73;1.70;;;22.10;32.70;;;;;;5017292;28;20235;-70
2021/04/09 11:15:38;;;;;;;4.13;1.53;;;21.50;33.60;;;;;;5025940;28;20232;-68
2021/04/09 11:18:05;;;;;;;3.13;1.57;;;21.20;34.60;;;;;;5023306;28;20241;-67
2021/04/09 11:20:42;;;;;;;4.30;1.70;;;21.00;35.60;;;;;;5027293;28;20588;-68
2021/04/09 11:23:11;;;;;;;4.47;1.27;;;21.10;35.90;;;;;;4997737;28;20236;-67
2021/04/09 11:25:40;;;;;;;4.37;1.90;;;21.30;35.80;;;;;;5010534;28;20270;-70
2021/04/09 11:28:09;;;;;;;3.93;1.40;;;21.50;35.50;;;;;;5027213;28;20238;-68
2021/04/09 11:30:38;;;;;;;4.93;1.73;;;21.50;34.80;;;;;;5024016;28;20266;-68
2021/04/09 11:33:06;;;;;;;2.40;1.37;;;21.30;35.40;;;;;;5010700;28;20296;-70
2021/04/09 11:35:35;;;;;;;4.80;1.43;;;21.30;34.90;;;;;;5014943;28;20222;-70
2021/04/09 11:38:12;;;;;;;3.40;1.27;;;21.30;35.60;;;;;;5009278;28;20222;-68
2021/04/09 11:40:43;;;;;;;5.03;1.50;;;21.50;35.50;;;;;;5020944;28;20246;-68
2021/04/09 11:43:13;;;;;;;2.60;1.60;;;21.80;34.50;;;;;;5019488;28;20244;-68
2021/04/09 11:45:45;;;;;;;3.77;1.47;;;22.10;33.90;;;;;;5021541;28;20722;-68
2021/04/09 11:48:26;;;;;;;4.90;2.10;;;22.50;33.60;;;;;;5011274;28;20208;-67
2021/04/09 11:50:55;;;;;;;3.47;1.47;;;22.70;32.40;;;;;;5014594;28;20220;-68
2021/04/09 11:53:22;;;;;;;4.30;1.40;;;22.60;32.10;;;;;;5022749;28;20271;-68
2021/04/09 11:55:49;;;;;;;2.90;1.13;;;22.50;33.00;;;;;;5002704;28;20207;-71
2021/04/09 11:58:17;;;;;;;8.43;1.60;;;22.40;33.10;;;;;;5017521;28;20298;-70
2021/04/09 12:01:03;;;;;;;5.13;1.73;;;22.50;32.90;;;;;;5001809;28;20303;-70
2021/04/09 12:03:40;;;;;;;4.17;1.60;;;22.60;33.20;;;;;;5007446;28;20245;-72
2021/04/09 12:06:14;;;;;;;4.70;1.60;;;22.70;32.40;;;;;;5004999;28;20615;-69
2021/04/09 12:08:42;;;;;;;4.00;1.50;;;22.80;32.50;;;;;;5008736;28;20214;-71
2021/04/09 12:11:10;;;;;;;2.57;1.10;;;22.70;32.30;;;;;;5025369;28;20207;-70
2021/04/09 12:13:38;;;;;;;3.00;1.17;;;22.50;32.40;;;;;;5000946;28;20520;-70
2021/04/09 12:16:07;;;;;;;3.70;1.37;;;22.30;32.60;;;;;;5020617;28;20220;-70
2021/04/09 12:18:35;;;;;;;4.13;1.63;;;22.00;33.70;;;;;;5021929;28;20219;-70
2021/04/09 12:21:01;;;;;;;1.77;1.27;;;21.80;32.90;;;;;;5017454;28;20212;-71
2021/04/09 12:23:28;;;;;;;2.90;1.30;;;21.70;32.80;;;;;;4999479;28;20232;-70
2021/04/09 12:25:59;;;;;;;2.77;1.27;;;21.50;33.10;;;;;;5018401;28;20212;-71
2021/04/09 12:28:27;;;;;;;7.37;1.63;;;21.40;33.20;;;;;;5013322;28;20219;-70
2021/04/09 12:30:54;;;;;;;2.70;1.27;;;21.40;33.40;;;;;;5021379;28;20218;-70
2021/04/09 12:33:24;;;;;;;5.43;1.50;;;21.40;33.50;;;;;;5014970;28;20667;-70
2021/04/09 12:35:51;;;;;;;3.27;1.37;;;21.30;33.40;;;;;;5018071;28;20228;-70
2021/04/09 12:38:18;;;;;;;3.50;1.30;;;21.10;33.40;;;;;;5014755;28;21153;-68
2021/04/09 12:40:45;;;;;;;14.77;2.23;;;20.90;34.00;;;;;;5009677;28;20247;-68
2021/04/09 12:43:11;;;;;;;2.60;1.67;;;20.80;35.10;;;;;;5024477;28;20298;-68
2021/04/09 12:45:38;;;;;;;4.27;1.90;;;20.80;35.30;;;;;;5018709;28;20624;-68
2021/04/09 12:48:05;;;;;;;2.37;1.33;;;20.70;35.10;;;;;;5017195;28;20211;-68
2021/04/09 12:50:32;;;;;;;2.70;1.27;;;20.90;34.70;;;;;;5021937;28;20204;-68
2021/04/09 12:52:59;;;;;;;3.77;1.20;;;21.00;34.60;;;;;;5030101;28;20234;-68
2021/04/09 12:55:28;;;;;;;3.73;1.07;;;21.20;34.30;;;;;;5037745;28;20626;-68
2021/04/09 12:57:55;;;;;;;2.60;1.20;;;21.60;33.70;;;;;;5036237;28;20221;-68
2021/04/09 13:00:23;;;;;;;3.20;1.10;;;21.90;33.50;;;;;;5032792;28;20250;-68
2021/04/09 13:02:50;;;;;;;2.80;1.20;;;22.10;33.70;;;;;;5032869;28;20203;-68
2021/04/09 13:05:18;;;;;;;6.17;1.40;;;22.10;33.70;;;;;;5017238;28;20725;-68
2021/04/09 13:07:45;;;;;;;3.80;1.10;;;22.10;33.90;;;;;;5035903;28;20595;-68
2021/04/09 13:10:16;;;;;;;2.13;1.20;;;21.90;33.90;;;;;;5032802;28;20592;-68
2021/04/09 13:12:43;;;;;;;3.87;1.50;;;21.90;33.40;;;;;;5040168;28;20211;-68
2021/04/09 13:15:10;;;;;;;4.63;1.40;;;21.70;33.30;;;;;;5037126;28;20221;-68
2021/04/09 13:17:37;;;;;;;4.77;1.90;;;21.60;33.40;;;;;;5042863;28;20206;-68
2021/04/09 13:20:05;;;;;;;3.53;1.60;;;21.60;33.50;;;;;;5038409;28;20218;-68
2021/04/09 13:22:31;;;;;;;4.30;1.77;;;21.60;33.80;;;;;;5043760;28;20223;-68
2021/04/09 13:24:58;;;;;;;6.30;1.27;;;21.70;33.50;;;;;;5040244;28;20240;-69
2021/04/09 13:27:25;;;;;;;2.10;1.40;;;21.80;34.00;;;;;;5040164;28;20218;-68
2021/04/09 13:29:52;;;;;;;5.87;1.27;;;21.90;33.60;;;;;;5039568;28;20203;-68
2021/04/09 13:32:19;;;;;;;8.03;1.60;;;22.00;34.00;;;;;;5046009;28;20268;-68
2021/04/09 13:34:46;;;;;;;3.13;1.70;;;21.90;34.10;;;;;;5042316;28;20224;-68
2021/04/09 13:37:13;;;;;;;2.87;1.63;;;21.90;33.10;;;;;;5044772;28;20215;-67
2021/04/09 13:39:39;;;;;;;3.60;1.37;;;21.60;33.90;;;;;;5043588;28;20207;-68
2021/04/09 13:42:06;;;;;;;4.33;1.67;;;21.50;34.00;;;;;;5041492;28;20211;-68
2021/04/09 13:44:33;;;;;;;5.93;1.10;;;21.40;34.20;;;;;;5047974;28;20280;-68
2021/04/09 13:47:01;;;;;;;9.43;1.40;;;21.40;34.20;;;;;;5043690;28;20218;-68
2021/04/09 13:49:27;;;;;;;2.37;1.50;;;21.40;34.70;;;;;;5049911;28;20268;-68
2021/04/09 13:51:54;;;;;;;5.70;1.47;;;21.30;34.70;;;;;;5049769;28;20512;-68
2021/04/09 13:54:21;;;;;;;3.97;1.60;;;21.30;34.30;;;;;;5048028;28;20211;-68
2021/04/09 13:56:47;;;;;;;138.30;12.03;;;21.30;33.90;;;;;;5027896;28;20229;-68
2021/04/09 13:59:14;;;;;;;76.30;8.80;;;21.20;34.60;;;;;;5040261;28;20218;-68